createdAt,value
2018-08-28T00:00:09.603Z,15.88
2018-08-28T00:00:43.204Z,15.88
2018-08-28T00:01:22.927Z,15.88
2018-08-28T00:01:56.504Z,15.88
2018-08-28T00:02:30.448Z,15.88
2018-08-28T00:03:04.427Z,15.88
2018-08-28T00:03:37.935Z,15.94
2018-08-28T00:04:11.470Z,15.88
2018-08-28T00:04:45.026Z,15.88
2018-08-28T00:05:18.572Z,15.88
2018-08-28T00:05:52.130Z,15.88
2018-08-28T00:06:25.682Z,15.94
2018-08-28T00:06:59.220Z,15.94
2018-08-28T00:07:32.770Z,15.94
2018-08-28T00:08:06.373Z,15.94
2018-08-28T00:08:39.938Z,15.94
2018-08-28T00:09:13.450Z,15.94
2018-08-28T00:09:46.996Z,15.94
2018-08-28T00:10:20.598Z,15.94
2018-08-28T00:10:54.144Z,15.94
2018-08-28T00:11:27.658Z,15.94
2018-08-28T00:12:01.274Z,15.94
2018-08-28T00:12:34.832Z,15.94
2018-08-28T00:13:08.354Z,15.94
2018-08-28T00:13:41.914Z,15.94
2018-08-28T00:14:15.430Z,15.94
2018-08-28T00:14:49.122Z,15.88
2018-08-28T00:15:22.692Z,15.88
2018-08-28T00:15:56.252Z,15.88
2018-08-28T00:16:29.772Z,15.88
2018-08-28T00:17:03.411Z,15.88
2018-08-28T00:17:36.996Z,15.88
2018-08-28T00:18:10.542Z,15.88
2018-08-28T00:18:44.088Z,15.88
2018-08-28T00:19:17.614Z,15.88
2018-08-28T00:19:51.320Z,15.81
2018-08-28T00:20:24.872Z,15.81
2018-08-28T00:20:58.462Z,15.81
2018-08-28T00:21:32.024Z,15.81
2018-08-28T00:22:05.540Z,15.81
2018-08-28T00:22:39.099Z,15.81
2018-08-28T00:23:12.612Z,15.81
2018-08-28T00:23:46.161Z,15.81
2018-08-28T00:24:19.726Z,15.81
2018-08-28T00:24:53.292Z,15.81
2018-08-28T00:25:26.822Z,15.81
2018-08-28T00:26:00.330Z,15.81
2018-08-28T00:26:33.866Z,15.81
2018-08-28T00:27:07.448Z,15.81
2018-08-28T00:27:41.056Z,15.81
2018-08-28T00:28:14.608Z,15.81
2018-08-28T00:28:48.128Z,15.81
2018-08-28T00:29:21.761Z,15.81
2018-08-28T00:29:55.316Z,15.81
2018-08-28T00:30:28.844Z,15.75
2018-08-28T00:31:02.368Z,15.75
2018-08-28T00:31:35.890Z,15.75
2018-08-28T00:32:09.436Z,15.75
2018-08-28T00:32:42.960Z,15.75
2018-08-28T00:33:16.482Z,15.75
2018-08-28T00:33:49.982Z,15.75
2018-08-28T00:34:23.506Z,15.81
2018-08-28T00:34:57.032Z,15.81
2018-08-28T00:35:30.565Z,15.81
2018-08-28T00:36:04.100Z,15.81
2018-08-28T00:36:37.600Z,15.81
2018-08-28T00:37:11.172Z,15.81
2018-08-28T00:37:44.732Z,15.81
2018-08-28T00:38:18.304Z,15.81
2018-08-28T00:38:51.972Z,15.81
2018-08-28T00:39:25.509Z,15.81
2018-08-28T00:39:59.080Z,15.81
2018-08-28T00:40:32.598Z,15.81
2018-08-28T00:41:06.413Z,15.81
2018-08-28T00:41:39.961Z,15.75
2018-08-28T00:42:13.500Z,15.75
2018-08-28T00:42:47.038Z,15.75
2018-08-28T00:43:20.589Z,15.75
2018-08-28T00:43:54.120Z,15.69
2018-08-28T00:44:27.650Z,15.69
2018-08-28T00:45:01.200Z,15.69
2018-08-28T00:45:34.750Z,15.69
2018-08-28T00:46:08.282Z,15.69
2018-08-28T00:46:41.836Z,15.69
2018-08-28T00:47:15.362Z,15.69
2018-08-28T00:47:48.928Z,15.63
2018-08-28T00:48:22.484Z,15.63
2018-08-28T00:48:56.048Z,15.63
2018-08-28T00:49:29.613Z,15.63
2018-08-28T00:50:03.184Z,15.63
2018-08-28T00:50:36.712Z,15.63
2018-08-28T00:51:10.241Z,15.63
2018-08-28T00:51:43.780Z,15.63
2018-08-28T00:52:17.362Z,15.63
2018-08-28T00:52:50.800Z,15.63
2018-08-28T00:53:24.354Z,15.63
2018-08-28T00:53:57.898Z,15.56
2018-08-28T00:54:31.452Z,15.56
2018-08-28T00:55:05.218Z,15.56
2018-08-28T00:55:38.752Z,15.56
2018-08-28T00:56:12.282Z,15.56
2018-08-28T00:56:45.830Z,15.56
2018-08-28T00:57:19.350Z,15.50
2018-08-28T00:57:52.924Z,15.50
2018-08-28T00:58:26.455Z,15.50
2018-08-28T00:59:01.063Z,15.50
2018-08-28T00:59:34.580Z,15.44
2018-08-28T01:00:08.184Z,15.44
2018-08-28T01:00:41.756Z,15.44
2018-08-28T01:01:15.480Z,15.44
2018-08-28T01:01:49.054Z,15.38
2018-08-28T01:02:22.608Z,15.38
2018-08-28T01:02:56.142Z,15.38
2018-08-28T01:03:29.734Z,15.38
2018-08-28T01:04:03.248Z,15.31
2018-08-28T01:04:36.776Z,15.31
2018-08-28T01:05:10.292Z,15.31
2018-08-28T01:05:43.839Z,15.31
2018-08-28T01:06:17.366Z,15.31
2018-08-28T01:06:50.987Z,15.31
2018-08-28T01:07:24.545Z,15.31
2018-08-28T01:07:58.096Z,15.31
2018-08-28T01:08:31.595Z,15.31
2018-08-28T01:09:07.008Z,15.31
2018-08-28T01:09:40.564Z,15.25
2018-08-28T01:10:14.064Z,15.25
2018-08-28T01:10:47.588Z,15.25
2018-08-28T01:11:21.154Z,15.25
2018-08-28T01:11:54.698Z,15.25
2018-08-28T01:12:28.252Z,15.25
2018-08-28T01:13:01.776Z,15.19
2018-08-28T01:13:35.282Z,15.19
2018-08-28T01:14:08.856Z,15.19
2018-08-28T01:14:42.494Z,15.19
2018-08-28T01:15:16.013Z,15.19
2018-08-28T01:15:49.584Z,15.19
2018-08-28T01:16:23.084Z,15.19
2018-08-28T01:16:56.719Z,15.19
2018-08-28T01:17:30.272Z,15.19
2018-08-28T01:18:04.166Z,15.19
2018-08-28T01:18:37.734Z,15.19
2018-08-28T01:19:11.483Z,15.19
2018-08-28T01:19:45.046Z,15.19
2018-08-28T01:20:18.609Z,15.19
2018-08-28T01:20:52.164Z,15.19
2018-08-28T01:21:25.670Z,15.19
2018-08-28T01:21:59.179Z,15.13
2018-08-28T01:22:32.726Z,15.13
2018-08-28T01:23:06.244Z,15.13
2018-08-28T01:23:39.838Z,15.13
2018-08-28T01:24:13.376Z,15.13
2018-08-28T01:24:46.914Z,15.13
2018-08-28T01:25:20.488Z,15.13
2018-08-28T01:25:54.034Z,15.06
2018-08-28T01:26:27.635Z,15.06
2018-08-28T01:27:01.184Z,15.06
2018-08-28T01:27:34.736Z,15.06
2018-08-28T01:28:08.274Z,15.06
2018-08-28T01:28:41.783Z,15.00
2018-08-28T01:29:15.330Z,15.00
2018-08-28T01:29:48.873Z,15.00
2018-08-28T01:30:28.036Z,15.00
2018-08-28T01:31:01.570Z,14.94
2018-08-28T01:31:35.108Z,14.94
2018-08-28T01:32:08.634Z,14.87
2018-08-28T01:32:42.162Z,14.87
2018-08-28T01:33:15.678Z,14.87
2018-08-28T01:33:49.218Z,14.81
2018-08-28T01:34:22.742Z,14.81
2018-08-28T01:34:56.256Z,14.81
2018-08-28T01:35:29.760Z,14.75
2018-08-28T01:36:03.396Z,14.75
2018-08-28T01:36:36.924Z,14.69
2018-08-28T01:37:10.720Z,14.69
2018-08-28T01:37:44.208Z,14.69
2018-08-28T01:38:17.732Z,14.69
2018-08-28T01:38:51.290Z,14.63
2018-08-28T01:39:24.903Z,14.63
2018-08-28T01:39:58.456Z,14.63
2018-08-28T01:40:32.012Z,14.56
2018-08-28T01:41:05.734Z,14.56
2018-08-28T01:41:39.310Z,14.50
2018-08-28T01:42:17.220Z,14.50
2018-08-28T01:42:50.792Z,14.50
2018-08-28T01:43:24.912Z,14.44
2018-08-28T01:43:58.400Z,14.44
2018-08-28T01:44:31.972Z,14.44
2018-08-28T01:45:06.096Z,14.44
2018-08-28T01:45:39.624Z,14.38
2018-08-28T01:46:13.140Z,14.38
2018-08-28T01:46:46.776Z,14.38
2018-08-28T01:47:21.024Z,14.38
2018-08-28T01:47:54.576Z,14.38
2018-08-28T01:48:28.476Z,14.31
2018-08-28T01:49:02.231Z,14.31
2018-08-28T01:49:35.759Z,14.31
2018-08-28T01:50:09.286Z,14.31
2018-08-28T01:50:42.860Z,14.31
2018-08-28T01:51:16.357Z,14.25
2018-08-28T01:51:49.872Z,14.25
2018-08-28T01:52:23.405Z,14.25
2018-08-28T01:52:56.939Z,14.25
2018-08-28T01:53:30.522Z,14.25
2018-08-28T01:54:04.060Z,14.19
2018-08-28T01:54:37.570Z,14.19
2018-08-28T01:55:11.076Z,14.19
2018-08-28T01:55:44.693Z,14.19
2018-08-28T01:56:18.226Z,14.19
2018-08-28T01:56:51.748Z,14.19
2018-08-28T01:57:25.282Z,14.13
2018-08-28T01:57:58.776Z,14.13
2018-08-28T01:58:32.320Z,14.13
2018-08-28T01:59:05.843Z,14.13
2018-08-28T01:59:39.340Z,14.13
2018-08-28T02:00:12.855Z,14.06
2018-08-28T02:00:46.470Z,14.06
2018-08-28T02:01:20.024Z,14.06
2018-08-28T02:01:53.531Z,14.06
2018-08-28T02:02:27.054Z,14.00
2018-08-28T02:03:00.790Z,14.00
2018-08-28T02:03:34.310Z,14.00
2018-08-28T02:04:07.878Z,14.00
2018-08-28T02:04:41.468Z,13.94
2018-08-28T02:05:15.028Z,13.94
2018-08-28T02:05:48.570Z,13.94
2018-08-28T02:06:22.082Z,13.94
2018-08-28T02:06:55.614Z,13.88
2018-08-28T02:07:29.113Z,13.88
2018-08-28T02:08:03.016Z,13.88
2018-08-28T02:08:36.562Z,13.88
2018-08-28T02:09:10.129Z,13.81
2018-08-28T02:09:43.711Z,13.81
2018-08-28T02:10:17.242Z,13.81
2018-08-28T02:10:50.744Z,13.81
2018-08-28T02:11:24.522Z,13.75
2018-08-28T02:11:58.108Z,13.75
2018-08-28T02:12:31.642Z,13.75
2018-08-28T02:13:05.401Z,13.75
2018-08-28T02:13:38.950Z,13.75
2018-08-28T02:14:12.492Z,13.75
2018-08-28T02:14:46.007Z,13.75
2018-08-28T02:15:19.550Z,13.69
2018-08-28T02:15:53.074Z,13.69
2018-08-28T02:16:26.618Z,13.69
2018-08-28T02:17:00.164Z,13.69
2018-08-28T02:17:33.664Z,13.69
2018-08-28T02:18:07.185Z,13.69
2018-08-28T02:18:40.759Z,13.69
2018-08-28T02:19:14.283Z,13.69
2018-08-28T02:19:47.840Z,13.69
2018-08-28T02:20:21.388Z,13.69
2018-08-28T02:20:54.972Z,13.69
2018-08-28T02:21:28.598Z,13.69
2018-08-28T02:22:02.169Z,13.69
2018-08-28T02:22:35.716Z,13.69
2018-08-28T02:23:09.340Z,13.69
2018-08-28T02:23:42.878Z,13.69
2018-08-28T02:24:16.450Z,13.69
2018-08-28T02:24:50.066Z,13.69
2018-08-28T02:25:23.595Z,13.62
2018-08-28T02:25:57.110Z,13.62
2018-08-28T02:26:30.662Z,13.62
2018-08-28T02:27:04.356Z,13.62
2018-08-28T02:27:37.896Z,13.62
2018-08-28T02:28:11.444Z,13.62
2018-08-28T02:28:44.968Z,13.62
2018-08-28T02:29:18.532Z,13.62
2018-08-28T02:29:52.112Z,13.62
2018-08-28T02:30:25.628Z,13.62
2018-08-28T02:30:59.144Z,13.62
2018-08-28T02:31:32.658Z,13.62
2018-08-28T02:32:06.212Z,13.56
2018-08-28T02:32:39.712Z,13.56
2018-08-28T02:33:13.286Z,13.56
2018-08-28T02:33:46.930Z,13.56
2018-08-28T02:34:20.385Z,13.56
2018-08-28T02:34:53.918Z,13.56
2018-08-28T02:35:27.439Z,13.56
2018-08-28T02:36:01.196Z,13.56
2018-08-28T02:36:34.710Z,13.56
2018-08-28T02:37:08.285Z,13.62
2018-08-28T02:37:41.807Z,13.62
2018-08-28T02:38:15.340Z,13.62
2018-08-28T02:38:48.874Z,13.62
2018-08-28T02:39:22.390Z,13.62
2018-08-28T02:39:56.088Z,13.69
2018-08-28T02:40:29.592Z,13.69
2018-08-28T02:41:03.118Z,13.69
2018-08-28T02:41:36.906Z,13.75
2018-08-28T02:42:10.472Z,13.75
2018-08-28T02:42:44.009Z,13.75
2018-08-28T02:43:17.568Z,13.75
2018-08-28T02:43:51.150Z,13.81
2018-08-28T02:44:24.644Z,13.81
2018-08-28T02:44:58.164Z,13.81
2018-08-28T02:45:32.051Z,13.81
2018-08-28T02:46:05.897Z,13.88
2018-08-28T02:46:39.408Z,13.81
2018-08-28T02:47:12.918Z,13.88
2018-08-28T02:47:46.409Z,13.88
2018-08-28T02:48:19.958Z,13.88
2018-08-28T02:48:53.517Z,13.88
2018-08-28T02:49:27.067Z,13.88
2018-08-28T02:50:00.624Z,13.88
2018-08-28T02:50:34.182Z,13.88
2018-08-28T02:51:07.727Z,13.88
2018-08-28T02:51:41.298Z,13.88
2018-08-28T02:52:14.982Z,13.88
2018-08-28T02:52:48.525Z,13.88
2018-08-28T02:53:22.074Z,13.88
2018-08-28T02:53:55.852Z,13.88
2018-08-28T02:54:29.390Z,13.88
2018-08-28T02:55:03.060Z,13.88
2018-08-28T02:55:36.552Z,13.88
2018-08-28T02:56:10.190Z,13.88
2018-08-28T02:56:43.649Z,13.88
2018-08-28T02:57:17.182Z,13.94
2018-08-28T02:57:50.710Z,13.94
2018-08-28T02:58:24.274Z,13.94
2018-08-28T02:58:57.850Z,13.94
2018-08-28T02:59:31.384Z,13.94
2018-08-28T03:00:05.380Z,13.94
2018-08-28T03:00:38.950Z,13.94
2018-08-28T03:01:12.484Z,13.94
2018-08-28T03:01:46.032Z,14.00
2018-08-28T03:02:19.538Z,14.00
2018-08-28T03:02:53.085Z,14.00
2018-08-28T03:03:26.612Z,14.00
2018-08-28T03:04:00.170Z,14.00
2018-08-28T03:04:33.716Z,14.06
2018-08-28T03:05:07.273Z,14.06
2018-08-28T03:05:40.771Z,14.06
2018-08-28T03:06:14.342Z,14.06
2018-08-28T03:06:47.868Z,14.06
2018-08-28T03:07:21.422Z,14.13
2018-08-28T03:07:54.907Z,14.13
2018-08-28T03:08:28.446Z,14.13
2018-08-28T03:09:02.030Z,14.19
2018-08-28T03:09:35.570Z,14.19
2018-08-28T03:10:09.148Z,14.19
2018-08-28T03:10:42.695Z,14.19
2018-08-28T03:11:16.246Z,14.19
2018-08-28T03:11:49.784Z,14.19
2018-08-28T03:12:23.332Z,14.19
2018-08-28T03:12:56.868Z,14.25
2018-08-28T03:13:30.401Z,14.25
2018-08-28T03:14:03.951Z,14.25
2018-08-28T03:14:37.485Z,14.25
2018-08-28T03:15:11.025Z,14.25
2018-08-28T03:15:44.589Z,14.25
2018-08-28T03:16:18.122Z,14.25
2018-08-28T03:16:51.666Z,14.25
2018-08-28T03:17:25.236Z,14.25
2018-08-28T03:17:58.783Z,14.31
2018-08-28T03:18:32.575Z,14.31
2018-08-28T03:19:06.110Z,14.31
2018-08-28T03:19:39.631Z,14.31
2018-08-28T03:20:13.161Z,14.31
2018-08-28T03:20:46.702Z,14.31
2018-08-28T03:21:20.248Z,14.31
2018-08-28T03:21:53.802Z,14.31
2018-08-28T03:22:27.348Z,14.31
2018-08-28T03:23:00.908Z,14.31
2018-08-28T03:23:34.481Z,14.38
2018-08-28T03:24:08.006Z,14.38
2018-08-28T03:24:41.545Z,14.38
2018-08-28T03:25:15.048Z,14.38
2018-08-28T03:25:48.545Z,14.38
2018-08-28T03:26:22.090Z,14.38
2018-08-28T03:26:55.598Z,14.38
2018-08-28T03:27:29.205Z,14.38
2018-08-28T03:28:02.719Z,14.38
2018-08-28T03:28:36.196Z,14.38
2018-08-28T03:29:09.785Z,14.38
2018-08-28T03:29:43.382Z,14.38
2018-08-28T03:30:16.912Z,14.38
2018-08-28T03:30:50.441Z,14.44
2018-08-28T03:31:23.928Z,14.44
2018-08-28T03:31:57.445Z,14.44
2018-08-28T03:32:31.016Z,14.44
2018-08-28T03:33:04.630Z,14.44
2018-08-28T03:33:38.123Z,14.44
2018-08-28T03:34:11.644Z,14.44
2018-08-28T03:34:45.141Z,14.44
2018-08-28T03:35:18.636Z,14.44
2018-08-28T03:35:52.357Z,14.44
2018-08-28T03:36:25.866Z,14.50
2018-08-28T03:36:59.436Z,14.50
2018-08-28T03:37:32.911Z,14.50
2018-08-28T03:38:06.529Z,14.50
2018-08-28T03:38:40.056Z,14.50
2018-08-28T03:39:13.623Z,14.50
2018-08-28T03:39:47.100Z,14.50
2018-08-28T03:40:20.739Z,14.50
2018-08-28T03:40:54.244Z,14.50
2018-08-28T03:41:27.754Z,14.50
2018-08-28T03:42:01.305Z,14.50
2018-08-28T03:42:34.820Z,14.50
2018-08-28T03:43:08.392Z,14.50
2018-08-28T03:43:41.955Z,14.50
2018-08-28T03:44:15.516Z,14.50
2018-08-28T03:44:49.125Z,14.50
2018-08-28T03:45:22.661Z,14.50
2018-08-28T03:45:56.218Z,14.50
2018-08-28T03:46:29.749Z,14.50
2018-08-28T03:47:03.317Z,14.50
2018-08-28T03:47:36.877Z,14.50
2018-08-28T03:48:10.464Z,14.50
2018-08-28T03:48:44.009Z,14.50
2018-08-28T03:49:17.577Z,14.50
2018-08-28T03:49:51.114Z,14.50
2018-08-28T03:50:24.684Z,14.50
2018-08-28T03:50:58.226Z,14.50
2018-08-28T03:51:31.783Z,14.50
2018-08-28T03:52:05.394Z,14.50
2018-08-28T03:52:38.933Z,14.50
2018-08-28T03:53:12.468Z,14.50
2018-08-28T03:53:45.972Z,14.56
2018-08-28T03:54:19.486Z,14.56
2018-08-28T03:54:53.057Z,14.56
2018-08-28T03:55:26.637Z,14.56
2018-08-28T03:56:00.193Z,14.56
2018-08-28T03:56:33.744Z,14.56
2018-08-28T03:57:07.335Z,14.50
2018-08-28T03:57:40.924Z,14.50
2018-08-28T03:58:14.440Z,14.56
2018-08-28T03:58:47.975Z,14.50
2018-08-28T03:59:21.515Z,14.56
2018-08-28T03:59:55.023Z,14.56
2018-08-28T04:00:28.567Z,14.56
2018-08-28T04:01:02.394Z,14.56
2018-08-28T04:01:35.908Z,14.50
2018-08-28T04:02:09.416Z,14.56
2018-08-28T04:02:42.936Z,14.50
2018-08-28T04:03:16.453Z,14.56
2018-08-28T04:03:50.045Z,14.50
2018-08-28T04:04:23.516Z,14.56
2018-08-28T04:04:57.319Z,14.56
2018-08-28T04:05:30.836Z,14.56
2018-08-28T04:06:04.417Z,14.56
2018-08-28T04:06:37.984Z,14.56
2018-08-28T04:07:11.603Z,14.56
2018-08-28T04:07:45.106Z,14.56
2018-08-28T04:08:18.673Z,14.56
2018-08-28T04:08:52.209Z,14.56
2018-08-28T04:09:25.724Z,14.56
2018-08-28T04:09:59.303Z,14.56
2018-08-28T04:10:32.815Z,14.56
2018-08-28T04:11:06.407Z,14.56
2018-08-28T04:11:39.933Z,14.56
2018-08-28T04:12:13.494Z,14.56
2018-08-28T04:12:47.020Z,14.56
2018-08-28T04:13:20.662Z,14.56
2018-08-28T04:13:54.173Z,14.56
2018-08-28T04:14:27.724Z,14.56
2018-08-28T04:15:01.427Z,14.56
2018-08-28T04:15:35.088Z,14.56
2018-08-28T04:16:08.609Z,14.56
2018-08-28T04:16:42.154Z,14.56
2018-08-28T04:17:15.700Z,14.56
2018-08-28T04:17:50.204Z,14.63
2018-08-28T04:18:23.700Z,14.63
2018-08-28T04:18:57.220Z,14.63
2018-08-28T04:19:30.734Z,14.63
2018-08-28T04:20:04.359Z,14.63
2018-08-28T04:20:37.938Z,14.56
2018-08-28T04:21:11.476Z,14.63
2018-08-28T04:21:45.006Z,14.56
2018-08-28T04:22:18.554Z,14.56
2018-08-28T04:22:52.061Z,14.56
2018-08-28T04:23:25.577Z,14.56
2018-08-28T04:23:59.100Z,14.56
2018-08-28T04:24:32.640Z,14.56
2018-08-28T04:25:06.196Z,14.56
2018-08-28T04:25:39.749Z,14.56
2018-08-28T04:26:13.268Z,14.56
2018-08-28T04:26:46.761Z,14.56
2018-08-28T04:27:20.288Z,14.56
2018-08-28T04:27:53.832Z,14.56
2018-08-28T04:28:27.528Z,14.56
2018-08-28T04:29:01.056Z,14.56
2018-08-28T04:29:34.566Z,14.56
2018-08-28T04:30:08.284Z,14.56
2018-08-28T04:30:41.841Z,14.56
2018-08-28T04:31:15.325Z,14.56
2018-08-28T04:31:48.826Z,14.56
2018-08-28T04:32:22.321Z,14.56
2018-08-28T04:32:55.804Z,14.56
2018-08-28T04:33:29.282Z,14.56
2018-08-28T04:34:02.834Z,14.56
2018-08-28T04:34:36.373Z,14.56
2018-08-28T04:35:09.896Z,14.56
2018-08-28T04:35:43.404Z,14.56
2018-08-28T04:36:16.958Z,14.56
2018-08-28T04:36:50.464Z,14.56
2018-08-28T04:37:24.002Z,14.56
2018-08-28T04:37:57.564Z,14.56
2018-08-28T04:38:31.122Z,14.56
2018-08-28T04:39:06.700Z,14.56
2018-08-28T04:39:40.195Z,14.56
2018-08-28T04:40:13.683Z,14.56
2018-08-28T04:40:47.321Z,14.56
2018-08-28T04:41:20.863Z,14.56
2018-08-28T04:41:54.466Z,14.56
2018-08-28T04:42:28.151Z,14.56
2018-08-28T04:43:01.672Z,14.56
2018-08-28T04:43:35.217Z,14.56
2018-08-28T04:44:08.741Z,14.56
2018-08-28T04:44:42.268Z,14.56
2018-08-28T04:45:15.818Z,14.56
2018-08-28T04:45:49.353Z,14.56
2018-08-28T04:46:22.896Z,14.56
2018-08-28T04:46:56.421Z,14.56
2018-08-28T04:47:29.933Z,14.56
2018-08-28T04:48:03.517Z,14.56
2018-08-28T04:48:37.117Z,14.56
2018-08-28T04:49:10.625Z,14.56
2018-08-28T04:49:44.207Z,14.56
2018-08-28T04:50:17.760Z,14.56
2018-08-28T04:50:51.275Z,14.56
2018-08-28T04:51:24.832Z,14.56
2018-08-28T04:51:58.345Z,14.56
2018-08-28T04:52:31.937Z,14.56
2018-08-28T04:53:05.638Z,14.56
2018-08-28T04:53:39.139Z,14.56
2018-08-28T04:54:12.668Z,14.56
2018-08-28T04:54:46.610Z,14.56
2018-08-28T04:55:20.192Z,14.56
2018-08-28T04:55:53.747Z,14.56
2018-08-28T04:56:27.285Z,14.56
2018-08-28T04:57:01.071Z,14.50
2018-08-28T04:57:34.649Z,14.56
2018-08-28T04:58:08.169Z,14.56
2018-08-28T04:58:41.691Z,14.56
2018-08-28T04:59:15.189Z,14.56
2018-08-28T04:59:48.739Z,14.56
2018-08-28T05:00:22.280Z,14.56
2018-08-28T05:00:55.843Z,14.56
2018-08-28T05:01:29.366Z,14.56
2018-08-28T05:02:02.995Z,14.56
2018-08-28T05:02:37.197Z,14.56
2018-08-28T05:03:10.735Z,14.56
2018-08-28T05:03:44.253Z,14.56
2018-08-28T05:04:17.761Z,14.56
2018-08-28T05:04:51.267Z,14.56
2018-08-28T05:05:24.772Z,14.56
2018-08-28T05:05:58.305Z,14.56
2018-08-28T05:06:31.859Z,14.56
2018-08-28T05:07:05.673Z,14.56
2018-08-28T05:07:39.186Z,14.56
2018-08-28T05:08:12.728Z,14.56
2018-08-28T05:08:46.261Z,14.56
2018-08-28T05:09:19.827Z,14.56
2018-08-28T05:09:53.379Z,14.56
2018-08-28T05:10:26.898Z,14.56
2018-08-28T05:11:00.424Z,14.56
2018-08-28T05:11:34.169Z,14.56
2018-08-28T05:12:07.700Z,14.56
2018-08-28T05:12:41.274Z,14.56
2018-08-28T05:13:14.841Z,14.56
2018-08-28T05:13:48.397Z,14.56
2018-08-28T05:14:21.933Z,14.56
2018-08-28T05:14:55.504Z,14.56
2018-08-28T05:15:29.003Z,14.56
2018-08-28T05:16:02.582Z,14.56
2018-08-28T05:16:36.126Z,14.56
2018-08-28T05:17:09.674Z,14.56
2018-08-28T05:17:43.178Z,14.56
2018-08-28T05:18:16.696Z,14.63
2018-08-28T05:18:50.189Z,14.63
2018-08-28T05:19:23.730Z,14.63
2018-08-28T05:19:57.280Z,14.63
2018-08-28T05:20:30.826Z,14.63
2018-08-28T05:21:04.533Z,14.63
2018-08-28T05:21:38.093Z,14.63
2018-08-28T05:22:11.639Z,14.63
2018-08-28T05:22:45.168Z,14.63
2018-08-28T05:23:18.683Z,14.63
2018-08-28T05:23:52.197Z,14.63
2018-08-28T05:24:25.681Z,14.63
2018-08-28T05:24:59.173Z,14.63
2018-08-28T05:25:32.703Z,14.69
2018-08-28T05:26:06.207Z,14.69
2018-08-28T05:26:39.701Z,14.63
2018-08-28T05:27:13.227Z,14.69
2018-08-28T05:27:47.225Z,14.69
2018-08-28T05:28:20.777Z,14.69
2018-08-28T05:28:54.275Z,14.69
2018-08-28T05:29:27.832Z,14.69
2018-08-28T05:30:01.333Z,14.69
2018-08-28T05:30:34.983Z,14.69
2018-08-28T05:31:08.463Z,14.69
2018-08-28T05:31:41.976Z,14.69
2018-08-28T05:32:15.541Z,14.69
2018-08-28T05:32:49.033Z,14.75
2018-08-28T05:33:22.567Z,14.75
2018-08-28T05:33:56.166Z,14.75
2018-08-28T05:34:29.779Z,14.75
2018-08-28T05:35:03.449Z,14.81
2018-08-28T05:35:36.950Z,14.81
2018-08-28T05:36:10.427Z,14.81
2018-08-28T05:36:43.937Z,14.81
2018-08-28T05:37:17.484Z,14.81
2018-08-28T05:37:51.056Z,14.81
2018-08-28T05:38:24.581Z,14.81
2018-08-28T05:38:58.108Z,14.81
2018-08-28T05:39:31.587Z,14.87
2018-08-28T05:40:05.191Z,14.87
2018-08-28T05:40:38.760Z,14.87
2018-08-28T05:41:12.279Z,14.87
2018-08-28T05:41:45.815Z,14.87
2018-08-28T05:42:19.335Z,14.87
2018-08-28T05:42:52.859Z,14.94
2018-08-28T05:43:26.354Z,14.94
2018-08-28T05:43:59.867Z,14.94
2018-08-28T05:44:33.415Z,15.00
2018-08-28T05:45:07.278Z,15.00
2018-08-28T05:45:40.817Z,15.00
2018-08-28T05:46:14.343Z,15.06
2018-08-28T05:46:47.853Z,15.06
2018-08-28T05:47:21.703Z,15.06
2018-08-28T05:47:55.228Z,15.06
2018-08-28T05:48:28.737Z,15.13
2018-08-28T05:49:02.299Z,15.13
2018-08-28T05:49:35.930Z,15.13
2018-08-28T05:50:09.449Z,15.13
2018-08-28T05:50:42.967Z,15.19
2018-08-28T05:51:16.509Z,15.19
2018-08-28T05:51:50.035Z,15.19
2018-08-28T05:52:23.555Z,15.25
2018-08-28T05:52:57.094Z,15.25
2018-08-28T05:53:30.636Z,15.25
2018-08-28T05:54:04.139Z,15.25
2018-08-28T05:54:37.620Z,15.31
2018-08-28T05:55:11.234Z,15.31
2018-08-28T05:55:44.823Z,15.31
2018-08-28T05:56:18.443Z,15.38
2018-08-28T05:56:51.873Z,15.38
2018-08-28T05:57:25.386Z,15.38
2018-08-28T05:57:58.891Z,15.44
2018-08-28T05:58:32.495Z,15.44
2018-08-28T05:59:06.007Z,15.50
2018-08-28T05:59:39.534Z,15.50
2018-08-28T06:00:13.231Z,15.50
2018-08-28T06:00:46.780Z,15.56
2018-08-28T06:01:20.332Z,15.56
2018-08-28T06:01:53.922Z,15.56
2018-08-28T06:02:27.466Z,15.63
2018-08-28T06:03:02.287Z,15.63
2018-08-28T06:03:35.839Z,15.63
2018-08-28T06:04:09.297Z,15.63
2018-08-28T06:04:42.794Z,15.69
2018-08-28T06:05:16.339Z,15.69
2018-08-28T06:05:49.872Z,15.69
2018-08-28T06:06:23.416Z,15.69
2018-08-28T06:06:56.946Z,15.69
2018-08-28T06:07:30.473Z,15.75
2018-08-28T06:08:04.200Z,15.75
2018-08-28T06:08:37.796Z,15.75
2018-08-28T06:09:11.318Z,15.75
2018-08-28T06:09:44.812Z,15.81
2018-08-28T06:10:18.410Z,15.81
2018-08-28T06:10:51.965Z,15.81
2018-08-28T06:11:25.504Z,15.81
2018-08-28T06:11:59.039Z,15.81
2018-08-28T06:12:32.593Z,15.81
2018-08-28T06:13:06.112Z,15.81
2018-08-28T06:13:39.690Z,15.81
2018-08-28T06:14:13.206Z,15.81
2018-08-28T06:14:46.839Z,15.81
2018-08-28T06:15:20.323Z,15.81
2018-08-28T06:15:53.897Z,15.81
2018-08-28T06:16:27.429Z,15.81
2018-08-28T06:17:00.932Z,15.88
2018-08-28T06:17:34.429Z,15.88
2018-08-28T06:18:07.952Z,15.88
2018-08-28T06:18:41.503Z,15.88
2018-08-28T06:19:15.033Z,15.88
2018-08-28T06:19:48.564Z,15.88
2018-08-28T06:20:22.124Z,15.88
2018-08-28T06:20:55.697Z,15.88
2018-08-28T06:21:29.237Z,15.88
2018-08-28T06:22:02.858Z,15.88
2018-08-28T06:22:36.404Z,15.88
2018-08-28T06:23:10.029Z,15.88
2018-08-28T06:23:43.493Z,15.88
2018-08-28T06:24:17.012Z,15.88
2018-08-28T06:24:50.540Z,15.88
2018-08-28T06:25:24.105Z,15.94
2018-08-28T06:25:57.635Z,15.94
2018-08-28T06:26:31.219Z,15.94
2018-08-28T06:27:04.745Z,15.94
2018-08-28T06:27:38.270Z,15.94
2018-08-28T06:28:11.769Z,15.94
2018-08-28T06:28:45.262Z,15.94
2018-08-28T06:29:18.792Z,15.94
2018-08-28T06:29:52.337Z,15.94
2018-08-28T06:30:25.885Z,15.94
2018-08-28T06:30:59.418Z,15.94
2018-08-28T06:31:33.033Z,15.94
2018-08-28T06:32:06.640Z,16.00
2018-08-28T06:32:40.180Z,16.00
2018-08-28T06:33:13.755Z,16.00
2018-08-28T06:33:47.333Z,16.00
2018-08-28T06:34:20.809Z,16.00
2018-08-28T06:34:54.321Z,16.00
2018-08-28T06:35:27.852Z,16.00
2018-08-28T06:36:01.409Z,16.00
2018-08-28T06:36:34.969Z,16.00
2018-08-28T06:37:08.532Z,16.00
2018-08-28T06:37:42.059Z,16.00
2018-08-28T06:38:15.588Z,16.06
2018-08-28T06:38:49.098Z,16.06
2018-08-28T06:39:22.677Z,16.06
2018-08-28T06:39:56.238Z,16.06
2018-08-28T06:40:29.761Z,16.06
2018-08-28T06:41:03.341Z,16.06
2018-08-28T06:41:36.909Z,16.06
2018-08-28T06:42:10.440Z,16.06
2018-08-28T06:42:44.027Z,16.06
2018-08-28T06:43:17.545Z,16.06
2018-08-28T06:43:51.083Z,16.06
2018-08-28T06:44:24.599Z,16.06
2018-08-28T06:44:58.200Z,16.06
2018-08-28T06:45:31.731Z,16.06
2018-08-28T06:46:05.376Z,16.06
2018-08-28T06:46:38.909Z,16.12
2018-08-28T06:47:12.421Z,16.12
2018-08-28T06:47:45.943Z,16.12
2018-08-28T06:48:19.449Z,16.19
2018-08-28T06:48:53.140Z,16.19
2018-08-28T06:49:26.681Z,16.19
2018-08-28T06:50:00.195Z,16.19
2018-08-28T06:50:33.713Z,16.25
2018-08-28T06:51:07.277Z,16.25
2018-08-28T06:51:40.832Z,16.25
2018-08-28T06:52:14.344Z,16.31
2018-08-28T06:52:47.868Z,16.31
2018-08-28T06:53:21.438Z,16.31
2018-08-28T06:53:54.966Z,16.31
2018-08-28T06:54:28.466Z,16.31
2018-08-28T06:55:02.042Z,16.31
2018-08-28T06:55:35.560Z,16.31
2018-08-28T06:56:09.105Z,16.37
2018-08-28T06:56:42.726Z,16.37
2018-08-28T06:57:16.244Z,16.37
2018-08-28T06:57:49.787Z,16.37
2018-08-28T06:58:23.319Z,16.37
2018-08-28T06:58:56.843Z,16.37
2018-08-28T06:59:30.418Z,16.37
2018-08-28T07:00:04.062Z,16.44
2018-08-28T07:00:37.608Z,16.44
2018-08-28T07:01:11.163Z,16.44
2018-08-28T07:01:44.701Z,16.44
2018-08-28T07:02:18.236Z,16.50
2018-08-28T07:02:51.776Z,16.50
2018-08-28T07:03:25.309Z,16.50
2018-08-28T07:03:58.896Z,16.50
2018-08-28T07:04:32.385Z,16.56
2018-08-28T07:05:06.159Z,16.56
2018-08-28T07:05:39.754Z,16.56
2018-08-28T07:06:13.277Z,16.62
2018-08-28T07:06:46.812Z,16.62
2018-08-28T07:07:20.471Z,16.62
2018-08-28T07:07:54.056Z,16.62
2018-08-28T07:08:27.577Z,16.62
2018-08-28T07:09:01.139Z,16.62
2018-08-28T07:09:34.684Z,16.69
2018-08-28T07:10:08.405Z,16.69
2018-08-28T07:10:42.170Z,16.69
2018-08-28T07:11:15.681Z,16.69
2018-08-28T07:11:49.323Z,16.75
2018-08-28T07:12:22.861Z,16.75